Time;durP1;ratioP1;P1;durP2;ratioP2;P2;SDS_P1;SDS_P2;PMS_P1;PMS_P2;Temp;Humidity;BMP_temperature;BMP_pressure;BME280_temperature;BME280_humidity;BME280_pressure;Samples;Min_cycle;Max_cycle;Signal;HPM_P1;HPM_P2
2022/10/31 00:01:25;;;;;;;10.93;7.43;;;;;;;7.69;100.00;101129.47;5014422;28;20041;-81
2022/10/31 00:03:52;;;;;;;11.23;6.70;;;;;;;7.66;100.00;101126.84;5014041;28;20041;-83
2022/10/31 00:06:19;;;;;;;13.10;6.90;;;;;;;7.68;100.00;101122.44;5014532;28;20052;-83
2022/10/31 00:08:47;;;;;;;13.57;7.20;;;;;;;7.66;100.00;101125.97;5017688;28;20152;-83
2022/10/31 00:11:14;;;;;;;13.00;7.70;;;;;;;7.68;100.00;101122.44;5001424;28;20524;-80
2022/10/31 00:13:41;;;;;;;12.70;7.47;;;;;;;7.61;100.00;101125.97;5000855;28;20136;-84
2022/10/31 00:16:18;;;;;;;17.43;8.20;;;;;;;7.53;100.00;101132.97;4998423;28;20046;-84
2022/10/31 00:18:52;;;;;;;12.67;6.90;;;;;;;7.58;100.00;101131.22;5008714;28;20130;-80
2022/10/31 00:21:20;;;;;;;11.87;7.27;;;;;;;7.56;100.00;101132.97;5036894;28;20041;-82
2022/10/31 00:23:46;;;;;;;12.57;8.00;;;;;;;7.53;100.00;101133.84;5052011;28;20045;-81
2022/10/31 00:26:13;;;;;;;13.70;8.17;;;;;;;7.55;100.00;101136.47;5043926;28;20612;-84
2022/10/31 00:28:40;;;;;;;13.20;7.93;;;;;;;7.53;100.00;101132.97;5030944;28;20041;-81
2022/10/31 00:31:09;;;;;;;14.73;8.70;;;;;;;7.47;100.00;101130.34;5018514;28;20049;-85
2022/10/31 00:33:37;;;;;;;12.27;7.33;;;;;;;7.47;100.00;101128.59;5017041;28;20103;-82
2022/10/31 00:36:05;;;;;;;13.90;7.63;;;;;;;7.44;100.00;101133.84;5013564;28;20052;-82
2022/10/31 00:38:32;;;;;;;11.63;7.70;;;;;;;7.45;100.00;101134.72;5017209;28;20043;-83
2022/10/31 00:40:58;;;;;;;12.90;7.60;;;;;;;7.41;100.00;101133.88;5012496;28;20405;-82
2022/10/31 00:43:25;;;;;;;12.97;8.03;;;;;;;7.45;100.00;101137.34;5014503;28;20060;-83
2022/10/31 00:45:54;;;;;;;14.63;8.17;;;;;;;7.38;100.00;101136.47;5006881;28;20045;-82
2022/10/31 00:48:21;;;;;;;14.60;8.17;;;;;;;7.34;100.00;101142.63;5003168;28;20045;-83
2022/10/31 00:50:48;;;;;;;11.37;7.77;;;;;;;7.33;100.00;101138.25;5024783;28;20513;-82
2022/10/31 00:53:14;;;;;;;12.67;8.33;;;;;;;7.39;100.00;101135.59;5023890;28;20033;-82
2022/10/31 00:55:41;;;;;;;14.60;7.40;;;;;;;7.41;100.00;101143.50;5020910;28;20536;-84
2022/10/31 00:58:08;;;;;;;12.00;7.57;;;;;;;7.30;100.00;101146.97;5029405;28;20045;-84
2022/10/31 01:00:35;;;;;;;12.47;8.00;;;;;;;7.30;100.00;101140.84;5005327;28;20656;-83
2022/10/31 01:03:02;;;;;;;10.93;7.13;;;;;;;7.35;100.00;101144.38;5037225;28;20044;-82
2022/10/31 01:05:29;;;;;;;13.57;7.67;;;;;;;7.23;100.00;101157.47;5017753;28;20041;-82
2022/10/31 01:07:55;;;;;;;11.93;7.73;;;;;;;7.29;100.00;101155.75;5001011;28;20041;-82
2022/10/31 01:10:22;;;;;;;10.37;7.03;;;;;;;7.26;100.00;101158.38;5018736;28;20041;-82
2022/10/31 01:12:49;;;;;;;12.17;7.37;;;;;;;7.27;100.00;101154.00;5017070;28;20782;-83
2022/10/31 01:15:21;;;;;;;19.00;7.73;;;;;;;7.21;100.00;101159.25;5034143;28;20037;-81
2022/10/31 01:17:48;;;;;;;11.40;6.57;;;;;;;7.12;100.00;101161.84;5016262;28;20075;-83
2022/10/31 01:20:16;;;;;;;14.27;8.10;;;;;;;7.12;100.00;101161.84;5016170;28;20347;-82
2022/10/31 01:22:43;;;;;;;11.30;7.13;;;;;;;7.09;100.00;101162.75;4995612;28;20159;-82
2022/10/31 01:25:10;;;;;;;12.13;7.87;;;;;;;7.11;100.00;101163.63;5000840;28;20044;-82
2022/10/31 01:27:37;;;;;;;14.00;7.33;;;;;;;7.07;100.00;101161.88;5015697;28;20079;-81
2022/10/31 01:30:05;;;;;;;13.03;7.93;;;;;;;7.08;100.00;101165.38;5001413;28;20040;-81
2022/10/31 01:32:32;;;;;;;11.60;8.20;;;;;;;7.02;100.00;101161.84;5028368;28;20037;-82
2022/10/31 01:34:58;;;;;;;11.17;7.27;;;;;;;7.01;100.00;101169.72;5042484;28;20490;-82
2022/10/31 01:37:25;;;;;;;12.37;7.93;;;;;;;7.01;100.00;101165.34;4999515;28;20040;-83
2022/10/31 01:39:52;;;;;;;12.07;7.47;;;;;;;6.98;100.00;101173.25;5033161;28;20049;-82
2022/10/31 01:42:20;;;;;;;15.30;7.50;;;;;;;6.98;100.00;101169.72;5015628;28;20058;-82
2022/10/31 01:44:56;;;;;;;11.53;7.07;;;;;;;6.95;100.00;101169.69;5016975;28;20041;-82
2022/10/31 01:47:46;;;;;;;10.47;7.57;;;;;;;6.92;100.00;101165.34;5035051;28;20084;-82
2022/10/31 01:50:20;;;;;;;11.37;7.90;;;;;;;6.91;100.00;101166.22;5011576;28;20481;-82
2022/10/31 01:52:47;;;;;;;10.20;7.68;;;;;;;6.90;100.00;101161.84;4998882;28;20044;-82
2022/10/31 01:55:24;;;;;;;11.70;7.10;;;;;;;6.89;100.00;101161.81;5015520;28;20053;-82
2022/10/31 01:57:58;;;;;;;11.77;7.30;;;;;;;6.86;100.00;101160.06;5050614;28;20044;-82
2022/10/31 02:00:26;;;;;;;10.53;6.67;;;;;;;6.82;100.00;101163.56;4985915;28;20096;-82
2022/10/31 02:02:55;;;;;;;10.97;6.83;;;;;;;6.85;100.00;101170.56;5000067;28;20041;-82
2022/10/31 02:05:25;;;;;;;9.03;6.83;;;;;;;6.80;100.00;101175.78;5017985;28;20067;-82
2022/10/31 02:08:10;;;;;;;11.27;7.60;;;;;;;6.80;100.00;101177.53;5000054;28;20129;-82
2022/10/31 02:10:37;;;;;;;10.80;7.37;;;;;;;6.76;100.00;101182.78;5016967;28;20452;-82
2022/10/31 02:13:06;;;;;;;8.93;6.67;;;;;;;6.73;100.00;101187.16;5015829;28;20086;-82
2022/10/31 02:15:33;;;;;;;11.23;7.17;;;;;;;6.75;100.00;101188.91;5018044;28;20045;-83
2022/10/31 02:17:59;;;;;;;12.37;7.47;;;;;;;6.74;100.00;101192.41;5017018;28;20114;-82
2022/10/31 02:20:32;;;;;;;10.73;7.50;;;;;;;6.67;100.00;101182.75;4997862;28;20644;-83
2022/10/31 02:23:07;;;;;;;10.30;7.00;;;;;;;6.78;100.00;101191.53;5024599;28;20033;-82
2022/10/31 02:26:00;;;;;;;11.07;7.87;;;;;;;6.68;100.00;101187.13;5035301;28;20037;-82
2022/10/31 02:28:51;;;;;;;11.00;7.33;;;;;;;6.71;100.00;101187.13;4991950;28;20529;-83
2022/10/31 02:31:33;;;;;;;13.27;7.80;;;;;;;6.75;100.00;101183.66;4997662;28;20041;-82
2022/10/31 02:34:32;;;;;;;10.93;7.87;;;;;;;6.69;100.00;101182.75;4997964;28;20104;-82
2022/10/31 02:37:07;;;;;;;13.97;7.57;;;;;;;6.75;100.00;101180.16;5018746;28;20152;-82
2022/10/31 02:39:58;;;;;;;13.87;7.83;;;;;;;6.74;100.00;101171.41;4991289;28;20041;-81
2022/10/31 02:42:57;;;;;;;10.57;7.07;;;;;;;6.66;100.00;101165.25;5010219;28;20033;-81
2022/10/31 02:45:33;;;;;;;11.83;7.27;;;;;;;6.61;100.00;101159.09;5009194;28;20521;-81
2022/10/31 02:48:06;;;;;;;10.87;7.07;;;;;;;6.58;100.00;101163.47;4996914;28;20398;-81
2022/10/31 02:50:34;;;;;;;12.93;7.57;;;;;;;6.57;100.00;101161.72;5008967;28;20049;-80
2022/10/31 02:53:02;;;;;;;9.83;7.10;;;;;;;6.49;100.00;101165.19;5011898;28;20041;-81
2022/10/31 02:55:29;;;;;;;10.47;7.17;;;;;;;6.45;100.00;101166.03;4996223;28;20038;-80
2022/10/31 02:58:01;;;;;;;11.73;7.13;;;;;;;6.44;100.00;101169.53;5015536;28;20044;-81
2022/10/31 03:00:32;;;;;;;10.30;6.57;;;;;;;6.42;100.00;101167.78;5008007;28;20424;-83
2022/10/31 03:03:14;;;;;;;13.30;7.93;;;;;;;6.41;100.00;101168.66;5008250;28;20040;-84
2022/10/31 03:05:51;;;;;;;9.17;6.63;;;;;;;6.44;100.00;101173.91;4993507;28;20271;-81
2022/10/31 03:08:26;;;;;;;14.00;8.53;;;;;;;6.46;100.00;101174.78;5022665;28;20501;-82
2022/10/31 03:10:58;;;;;;;11.70;8.23;;;;;;;6.40;100.00;101175.66;5016260;28;20083;-82
2022/10/31 03:13:42;;;;;;;13.50;8.40;;;;;;;6.52;100.00;101182.69;4993842;28;20033;-82
2022/10/31 03:16:13;;;;;;;16.73;7.90;;;;;;;6.47;100.00;101189.66;5037083;28;20064;-84
2022/10/31 03:18:46;;;;;;;16.17;7.53;;;;;;;6.39;100.00;101194.00;4998122;28;20483;-83
2022/10/31 03:21:16;;;;;;;16.10;8.37;;;;;;;6.36;100.00;101193.97;4993628;28;20041;-84
2022/10/31 03:23:44;;;;;;;13.90;8.03;;;;;;;6.31;100.00;101198.34;5009438;28;20046;-83
2022/10/31 03:26:12;;;;;;;13.00;7.40;;;;;;;6.32;100.00;101202.72;5004933;28;20064;-83
2022/10/31 03:28:55;;;;;;;14.77;8.77;;;;;;;6.38;100.00;101202.72;5012331;28;20095;-83
2022/10/31 03:31:24;;;;;;;20.23;8.87;;;;;;;6.43;100.00;101199.28;5012508;28;20469;-84
2022/10/31 03:33:52;;;;;;;18.20;9.43;;;;;;;6.41;100.00;101202.78;5023818;28;20090;-83
2022/10/31 03:36:18;;;;;;;14.43;8.43;;;;;;;6.41;100.00;101202.78;5016153;28;20376;-83
2022/10/31 03:38:46;;;;;;;14.57;9.13;;;;;;;6.33;100.00;101199.22;5003492;28;20449;-84
2022/10/31 03:41:20;;;;;;;14.13;8.60;;;;;;;6.35;100.00;101203.59;5001314;28;20056;-82
2022/10/31 03:43:56;;;;;;;18.25;8.43;;;;;;;6.30;100.00;101205.31;5011130;28;20041;-83
2022/10/31 03:46:23;;;;;;;15.80;8.73;;;;;;;6.26;100.00;101215.81;5002049;28;20069;-84
2022/10/31 03:48:50;;;;;;;16.67;8.57;;;;;;;6.26;100.00;101218.41;5018043;28;20045;-84
2022/10/31 03:51:31;;;;;;;18.60;9.83;;;;;;;6.26;100.00;101224.53;5024735;28;20045;-84
2022/10/31 03:54:07;;;;;;;16.13;9.43;;;;;;;6.31;100.00;101229.84;5014068;28;20068;-84
2022/10/31 03:56:40;;;;;;;21.60;11.10;;;;;;;6.31;100.00;101233.34;5020028;28;20041;-83
2022/10/31 03:59:31;;;;;;;22.00;11.60;;;;;;;6.32;100.00;101240.34;5019017;28;20037;-84
2022/10/31 04:02:00;;;;;;;17.27;9.77;;;;;;;6.31;100.00;101238.59;5018413;28;20070;-85
2022/10/31 04:04:27;;;;;;;20.27;11.10;;;;;;;6.36;100.00;101241.22;5019113;28;20044;-85
2022/10/31 04:06:54;;;;;;;22.20;10.67;;;;;;;6.34;100.00;101240.34;5011322;28;20045;-85
2022/10/31 04:09:22;;;;;;;16.37;9.30;;;;;;;6.36;100.00;101239.47;5010201;28;20045;-84
2022/10/31 04:11:51;;;;;;;15.40;9.47;;;;;;;6.42;100.00;101233.38;5019935;28;20049;-84
2022/10/31 04:14:18;;;;;;;20.67;10.63;;;;;;;6.44;100.00;101242.16;5017587;28;20046;-83
2022/10/31 04:16:45;;;;;;;26.07;10.53;;;;;;;6.45;100.00;101238.66;5017663;28;20563;-83
2022/10/31 04:19:12;;;;;;;19.90;10.63;;;;;;;6.44;100.00;101232.53;4999416;28;20103;-85
2022/10/31 04:21:39;;;;;;;19.97;10.07;;;;;;;6.45;100.00;101231.66;5002828;28;20045;-83
2022/10/31 04:24:06;;;;;;;21.67;11.80;;;;;;;6.46;100.00;101241.28;5033891;28;20136;-82
2022/10/31 04:26:33;;;;;;;19.20;11.40;;;;;;;6.44;100.00;101235.16;5006170;28;20164;-83
2022/10/31 04:29:00;;;;;;;22.23;10.83;;;;;;;6.48;100.00;101233.44;5035249;28;20040;-84
2022/10/31 04:31:27;;;;;;;20.67;11.00;;;;;;;6.47;100.00;101232.56;5016703;28;20410;-84
2022/10/31 04:33:54;;;;;;;23.47;10.83;;;;;;;6.52;100.00;101223.81;5034139;28;20104;-84
2022/10/31 04:36:20;;;;;;;20.77;10.37;;;;;;;6.58;100.00;101232.59;5017113;28;20033;-84
2022/10/31 04:38:47;;;;;;;18.03;10.13;;;;;;;6.56;100.00;101238.69;5041649;28;20045;-84
2022/10/31 04:41:14;;;;;;;19.77;10.57;;;;;;;6.48;100.00;101244.81;5000602;28;20037;-84
2022/10/31 04:43:41;;;;;;;19.03;10.73;;;;;;;6.41;100.00;101244.75;5019784;28;20425;-83
2022/10/31 04:46:08;;;;;;;17.00;9.30;;;;;;;6.43;100.00;101261.38;5003679;28;20056;-83
2022/10/31 04:48:35;;;;;;;21.83;11.33;;;;;;;6.39;100.00;101262.22;5003682;28;20060;-84
2022/10/31 04:51:02;;;;;;;18.63;11.13;;;;;;;6.43;100.00;101251.75;5002618;28;20045;-84
2022/10/31 04:53:29;;;;;;;19.03;9.93;;;;;;;6.39;100.00;101259.59;5011303;28;20045;-83
2022/10/31 04:55:58;;;;;;;22.30;10.63;;;;;;;6.41;100.00;101255.25;5007274;28;20091;-83
2022/10/31 04:58:24;;;;;;;19.73;10.77;;;;;;;6.39;100.00;101251.72;5017195;28;20049;-84
2022/10/31 05:00:53;;;;;;;19.37;10.33;;;;;;;6.40;100.00;101248.25;5002169;28;20072;-84
2022/10/31 05:03:20;;;;;;;17.87;10.47;;;;;;;6.44;100.00;101248.28;5002673;28;20124;-83
2022/10/31 05:05:47;;;;;;;17.77;10.23;;;;;;;6.47;100.00;101252.66;4997264;28;20099;-84
2022/10/31 05:08:14;;;;;;;21.47;10.80;;;;;;;6.48;100.00;101241.31;5000902;28;20124;-83
2022/10/31 05:10:41;;;;;;;20.63;10.63;;;;;;;6.47;100.00;101247.41;5017085;28;20048;-83
2022/10/31 05:13:08;;;;;;;21.87;11.43;;;;;;;6.45;100.00;101249.16;4997889;28;20037;-84
2022/10/31 05:15:35;;;;;;;21.53;12.00;;;;;;;6.40;100.00;101243.00;5021944;28;20041;-83
2022/10/31 05:18:02;;;;;;;19.40;9.90;;;;;;;6.39;100.00;101246.47;5002415;28;20033;-85
2022/10/31 05:20:30;;;;;;;21.27;10.93;;;;;;;6.40;100.00;101248.25;5017173;28;20102;-83
2022/10/31 05:22:57;;;;;;;23.23;11.50;;;;;;;6.37;100.00;101254.34;5015367;28;20056;-82
2022/10/31 05:25:28;;;;;;;20.00;12.20;;;;;;;6.36;100.00;101251.72;5013435;28;20040;-83
2022/10/31 05:27:55;;;;;;;20.53;12.50;;;;;;;6.37;100.00;101253.47;5020266;28;20045;-83
2022/10/31 05:30:25;;;;;;;21.63;11.57;;;;;;;6.40;100.00;101249.13;5031963;28;20045;-84
2022/10/31 05:32:52;;;;;;;18.80;12.03;;;;;;;6.41;100.00;101250.00;5010364;28;20056;-84
2022/10/31 05:35:30;;;;;;;20.40;10.93;;;;;;;6.45;100.00;101241.28;5000064;28;20045;-84
2022/10/31 05:37:58;;;;;;;21.97;11.63;;;;;;;6.52;100.00;101256.19;5024176;28;20132;-84
2022/10/31 05:40:27;;;;;;;21.90;12.30;;;;;;;6.47;100.00;101244.78;4994949;28;20071;-84
2022/10/31 05:42:55;;;;;;;19.00;11.53;;;;;;;6.47;100.00;101256.19;5014122;28;20041;-83
2022/10/31 05:45:22;;;;;;;23.00;11.10;;;;;;;6.51;100.00;101257.06;4993745;28;20237;-84
2022/10/31 05:48:00;;;;;;;26.47;13.00;;;;;;;6.50;100.00;101255.31;5013293;28;20091;-84
2022/10/31 05:50:29;;;;;;;18.50;10.43;;;;;;;6.53;100.00;101263.19;5016127;28;20045;-85
2022/10/31 05:53:01;;;;;;;19.57;11.20;;;;;;;6.62;100.00;101265.88;5015302;28;20045;-83
2022/10/31 05:55:29;;;;;;;22.97;12.60;;;;;;;6.61;100.00;101264.13;5015639;28;20052;-85
2022/10/31 05:57:56;;;;;;;24.97;12.80;;;;;;;6.63;100.00;101269.38;4995304;28;20044;-85
2022/10/31 06:00:25;;;;;;;22.57;11.53;;;;;;;6.65;100.00;101263.28;5016599;28;20091;-84
2022/10/31 06:03:03;;;;;;;25.63;13.87;;;;;;;6.73;100.00;101268.56;5001764;28;20107;-82
2022/10/31 06:05:30;;;;;;;21.70;12.50;;;;;;;6.73;100.00;101279.06;5023683;28;20060;-82
2022/10/31 06:07:58;;;;;;;19.53;11.33;;;;;;;6.73;100.00;101274.69;5012273;28;20048;-83
2022/10/31 06:10:26;;;;;;;19.87;12.87;;;;;;;6.78;100.00;101272.94;5012661;28;20037;-83
2022/10/31 06:12:53;;;;;;;19.90;12.50;;;;;;;6.84;100.00;101269.50;4999175;28;20041;-84
2022/10/31 06:15:20;;;;;;;19.67;11.67;;;;;;;6.87;100.00;101276.50;5012015;28;20037;-83
2022/10/31 06:18:05;;;;;;;25.13;11.97;;;;;;;6.92;100.00;101287.91;5013808;28;20147;-85
2022/10/31 06:20:33;;;;;;;21.00;12.43;;;;;;;6.94;100.00;101288.78;4991630;28;20037;-87
2022/10/31 06:23:00;;;;;;;19.37;12.13;;;;;;;6.98;100.00;101283.56;5013842;28;20049;-85
2022/10/31 06:25:28;;;;;;;23.03;12.70;;;;;;;7.06;100.00;101280.94;4998795;28;20052;-86
2022/10/31 06:27:55;;;;;;;21.57;12.30;;;;;;;7.07;100.00;101289.72;4995031;28;20495;-85
2022/10/31 06:30:22;;;;;;;20.63;11.83;;;;;;;7.09;100.00;101296.75;5014364;28;20041;-84
2022/10/31 06:32:49;;;;;;;23.37;13.20;;;;;;;7.14;100.00;101302.88;4997977;28;20098;-84
2022/10/31 06:35:16;;;;;;;17.63;11.40;;;;;;;7.16;100.00;101303.78;4998635;28;20037;-84
2022/10/31 06:37:50;;;;;;;15.90;11.93;;;;;;;7.21;100.00;101303.78;5008548;28;20153;-84
2022/10/31 06:40:17;;;;;;;19.27;10.27;;;;;;;7.22;100.00;101306.41;4991441;28;20128;-84
2022/10/31 06:42:44;;;;;;;18.10;10.50;;;;;;;7.26;100.00;101302.94;5028148;28;20041;-85
2022/10/31 06:45:11;;;;;;;19.03;11.93;;;;;;;7.25;100.00;101297.69;4999298;28;20045;-86
2022/10/31 06:47:39;;;;;;;18.40;11.37;;;;;;;7.28;100.00;101298.56;5016775;28;20048;-84
2022/10/31 06:50:25;;;;;;;18.33;11.90;;;;;;;7.37;100.00;101304.72;5021693;28;20057;-82
2022/10/31 06:52:56;;;;;;;21.97;11.93;;;;;;;7.41;100.00;101309.13;5012624;28;20212;-83
2022/10/31 06:55:25;;;;;;;15.67;10.97;;;;;;;7.41;100.00;101310.00;5012255;28;20045;-82
2022/10/31 06:57:56;;;;;;;16.70;10.20;;;;;;;7.50;100.00;101309.13;5016363;28;20044;-83
2022/10/31 07:00:29;;;;;;;18.30;11.40;;;;;;;7.54;100.00;101314.38;4998937;28;20037;-81
2022/10/31 07:02:58;;;;;;;18.30;11.07;;;;;;;7.59;100.00;101319.69;5009693;28;20037;-82
2022/10/31 07:05:26;;;;;;;17.27;11.47;;;;;;;7.64;100.00;101325.81;4992375;28;20118;-83
2022/10/31 07:08:01;;;;;;;17.93;10.77;;;;;;;7.69;100.00;101323.19;5013916;28;20048;-81
2022/10/31 07:10:30;;;;;;;21.40;12.33;;;;;;;7.74;100.00;101329.34;4996098;28;20132;-83
2022/10/31 07:13:05;;;;;;;19.30;12.33;;;;;;;7.78;100.00;101334.59;4997061;28;20068;-81
2022/10/31 07:15:34;;;;;;;19.97;12.07;;;;;;;7.82;100.00;101330.25;4999228;28;20056;-82
2022/10/31 07:18:06;;;;;;;15.43;10.80;;;;;;;7.87;100.00;101332.00;5016961;28;20514;-81
2022/10/31 07:20:33;;;;;;;19.73;12.50;;;;;;;7.90;100.00;101339.00;4999670;28;20043;-82
2022/10/31 07:23:00;;;;;;;17.20;11.03;;;;;;;7.96;100.00;101359.19;5014073;28;20422;-81
2022/10/31 07:25:28;;;;;;;20.13;12.13;;;;;;;7.96;100.00;101356.56;4999292;28;20526;-83
2022/10/31 07:27:55;;;;;;;17.87;11.70;;;;;;;8.03;100.00;101356.56;5017972;28;20057;-82
2022/10/31 07:30:22;;;;;;;17.67;11.77;;;;;;;8.05;100.00;101360.06;5013559;28;20143;-83
2022/10/31 07:32:50;;;;;;;16.20;11.37;;;;;;;8.09;100.00;101363.59;4976146;28;1067636;-81
2022/10/31 07:35:26;;;;;;;15.17;11.30;;;;;;;8.12;100.00;101358.34;5001661;28;20091;-81
2022/10/31 07:37:54;;;;;;;17.70;11.87;;;;;;;8.16;100.00;101365.38;5004767;22;20046;-80
2022/10/31 07:40:21;;;;;;;17.33;11.17;;;;;;;8.15;100.00;101359.19;4970631;28;20038;-83
2022/10/31 07:42:50;;;;;;;16.20;11.13;;;;;;;8.22;100.00;101356.56;4968845;28;20542;-82
2022/10/31 07:45:18;;;;;;;19.33;11.23;;;;;;;8.20;100.00;101364.47;4970917;28;20035;-81
2022/10/31 07:47:50;;;;;;;24.83;11.70;;;;;;;8.13;100.00;101358.31;4953660;28;20053;-83
2022/10/31 07:50:25;;;;;;;17.50;10.67;;;;;;;8.11;100.00;101369.75;4970460;28;20101;-83
2022/10/31 07:53:02;;;;;;;15.10;10.40;;;;;;;8.13;100.00;101362.72;4972068;28;20450;-83
2022/10/31 07:55:30;;;;;;;14.77;10.87;;;;;;;8.09;100.00;101356.59;4984890;28;20282;-82
2022/10/31 07:57:57;;;;;;;15.73;10.97;;;;;;;8.09;100.00;101360.97;4968997;28;20518;-83
2022/10/31 08:00:24;;;;;;;17.13;10.27;;;;;;;8.10;100.00;101362.72;4939813;28;20583;-81
2022/10/31 08:03:02;;;;;;;18.10;10.53;;;;;;;8.11;100.00;101361.84;4942427;28;20046;-83
2022/10/31 08:05:30;;;;;;;15.73;10.60;;;;;;;8.06;100.00;101366.22;4956196;28;20279;-82
2022/10/31 08:07:57;;;;;;;17.57;10.73;;;;;;;8.06;100.00;101376.75;4970279;28;20134;-83
2022/10/31 08:10:25;;;;;;;16.73;11.40;;;;;;;8.06;100.00;101369.72;4942393;28;20039;-80
2022/10/31 08:13:00;;;;;;;16.03;11.50;;;;;;;8.09;100.00;101368.88;4962091;28;20046;-80
2022/10/31 08:15:27;;;;;;;14.83;9.80;;;;;;;8.12;100.00;101384.66;4974029;28;20054;-80
2022/10/31 08:17:54;;;;;;;17.23;11.33;;;;;;;8.10;100.00;101383.78;4969014;28;20039;-80
2022/10/31 08:20:21;;;;;;;14.40;9.80;;;;;;;8.16;100.00;101375.91;4971166;28;20038;-81
2022/10/31 08:23:03;;;;;;;17.00;11.37;;;;;;;8.24;100.00;101382.03;4956634;28;20050;-82
2022/10/31 08:25:31;;;;;;;15.40;11.57;;;;;;;8.32;100.00;101380.25;4952437;28;20059;-83
2022/10/31 08:28:04;;;;;;;;;;;;;;;8.39;100.00;101378.56;4972916;28;20045;-82
2022/10/31 08:30:33;;;;;;;13.67;10.07;;;;;;;8.49;100.00;101377.66;4973018;28;19980;-83
2022/10/31 08:33:05;;;;;;;16.70;10.23;;;;;;;8.61;100.00;101384.69;4980641;28;20046;-82
2022/10/31 08:35:33;;;;;;;18.77;11.70;;;;;;;8.71;100.00;101378.53;4973204;28;20081;-82
2022/10/31 08:38:00;;;;;;;17.20;12.25;;;;;;;8.87;100.00;101377.63;4954444;28;20045;-83
2022/10/31 08:40:31;;;;;;;23.30;13.68;;;;;;;8.98;100.00;101382.88;4975914;28;20034;-82
2022/10/31 08:43:08;;;;;;;17.75;12.77;;;;;;;9.07;100.00;101377.56;4938377;28;20097;-82
2022/10/31 08:45:34;;;;;;;19.65;11.82;;;;;;;9.16;100.00;101379.31;4954175;28;20041;-82
2022/10/31 08:48:09;;;;;;;18.30;11.35;;;;;;;9.26;100.00;101388.97;4955152;28;20050;-83
2022/10/31 08:50:36;;;;;;;;;;;;;;;9.35;100.00;101380.13;4972270;28;20447;-82
2022/10/31 08:53:04;;;;;;;21.25;13.05;;;;;;;9.53;100.00;101383.56;4955219;28;19925;-81
2022/10/31 08:55:36;;;;;;;18.88;13.32;;;;;;;9.67;100.00;101382.59;4970101;28;20523;-83
2022/10/31 08:58:05;;;;;;;21.27;12.88;;;;;;;9.81;100.00;101384.28;4954602;28;20043;-82
2022/10/31 09:00:32;;;;;;;18.27;12.73;;;;;;;9.91;100.00;101379.81;4973582;28;20038;-82
2022/10/31 09:03:01;;;;;;;18.73;11.80;;;;;;;10.01;100.00;101380.66;4970498;28;20046;-82
2022/10/31 09:05:28;;;;;;;19.77;13.38;;;;;;;10.12;100.00;101377.06;4975107;28;20516;-81
2022/10/31 09:07:59;;;;;;;23.17;15.68;;;;;;;10.28;100.00;101376.97;4973997;28;20042;-82
2022/10/31 09:10:28;;;;;;;22.35;15.07;;;;;;;10.46;100.00;101382.09;4976406;28;20035;-82
2022/10/31 09:13:06;;;;;;;25.77;16.17;;;;;;;10.78;100.00;101387.09;4972329;28;20050;-80
2022/10/31 09:15:38;;;;;;;27.25;17.92;;;;;;;10.90;100.00;101389.63;5005268;28;20045;-81
2022/10/31 09:18:05;;;;;;;26.38;17.58;;;;;;;11.03;100.00;101392.16;4968402;28;20101;-81
2022/10/31 09:20:33;;;;;;;26.85;17.88;;;;;;;11.17;100.00;101393.72;4969553;28;20046;-81
2022/10/31 09:23:03;;;;;;;28.85;20.10;;;;;;;11.30;100.00;101390.97;5004384;28;20515;-81
2022/10/31 09:25:30;;;;;;;34.00;21.88;;;;;;;11.44;100.00;101374.03;4989052;28;20069;-80
2022/10/31 09:27:57;;;;;;;32.67;21.02;;;;;;;11.66;100.00;101379.91;4971384;28;20074;-80
2022/10/31 09:30:27;;;;;;;27.58;18.17;;;;;;;11.82;100.00;101378.81;4988636;28;20070;-80
2022/10/31 09:32:58;;;;;;;33.67;22.50;;;;;;;11.99;100.00;101383.88;4967137;28;20118;-80
2022/10/31 09:35:25;;;;;;;35.25;21.73;;;;;;;12.18;100.00;101384.47;5000491;28;20051;-80
2022/10/31 09:37:56;;;;;;;34.85;21.10;;;;;;;12.36;100.00;101383.34;4969023;28;20042;-80
2022/10/31 09:40:30;;;;;;;25.63;18.67;;;;;;;12.54;100.00;101384.78;4982067;28;20038;-80
2022/10/31 09:43:27;;;;;;;26.65;18.98;;;;;;;12.73;100.00;101388.88;4984096;28;20047;-78
2022/10/31 09:46:13;;;;;;;32.25;20.20;;;;;;;12.98;100.00;101393.72;4980547;28;20046;-80
2022/10/31 09:48:58;;;;;;;29.15;18.58;;;;;;;13.16;100.00;101396.03;4979576;28;20189;-80
2022/10/31 09:51:32;;;;;;;29.63;18.40;;;;;;;13.47;100.00;101393.69;4982263;28;20039;-81
2022/10/31 09:54:06;;;;;;;30.35;19.63;;;;;;;13.72;100.00;101394.91;4962392;28;20038;-81
2022/10/31 09:56:34;;;;;;;22.83;15.80;;;;;;;13.77;100.00;101397.44;4993735;28;20038;-82
2022/10/31 09:59:10;;;;;;;26.15;17.67;;;;;;;13.93;100.00;101390.00;4979327;28;20555;-84
2022/10/31 10:01:48;;;;;;;22.02;15.90;;;;;;;14.04;100.00;101398.59;4975145;28;20046;-81
2022/10/31 10:04:34;;;;;;;26.98;17.92;;;;;;;14.21;100.00;101399.13;4968809;28;20050;-82
2022/10/31 10:07:19;;;;;;;21.63;16.27;;;;;;;14.35;100.00;101396.97;4978294;28;20108;-81
2022/10/31 10:09:46;;;;;;;;;;;;;;;14.57;100.00;101400.03;4957540;28;20100;-83
2022/10/31 10:12:38;;;;;;;22.25;15.27;;;;;;;14.68;100.00;101394.41;4969576;28;19961;-82
2022/10/31 10:15:29;;;;;;;28.38;18.85;;;;;;;14.79;100.00;101391.47;4964932;28;20078;-82
2022/10/31 10:18:07;;;;;;;26.40;17.48;;;;;;;14.96;100.00;101391.03;4981187;28;20042;-83
2022/10/31 10:20:47;;;;;;;26.80;16.13;;;;;;;15.19;100.00;101394.81;4965191;28;20046;-82
2022/10/31 10:23:17;;;;;;;20.42;14.95;;;;;;;15.16;100.00;101397.56;4969994;28;20092;-82
2022/10/31 10:25:46;;;;;;;24.60;15.65;;;;;;;15.26;100.00;101391.97;4978964;28;20053;-82
2022/10/31 10:28:21;;;;;;;25.20;16.05;;;;;;;15.24;100.00;101396.50;4971420;28;20722;-83
2022/10/31 10:31:01;;;;;;;20.42;14.38;;;;;;;15.37;100.00;101384.56;4980652;28;20045;-82
2022/10/31 10:33:33;;;;;;;25.77;16.20;;;;;;;15.46;100.00;101390.47;4983768;28;20478;-83
2022/10/31 10:36:03;;;;;;;22.33;15.82;;;;;;;15.68;100.00;101388.09;4992443;28;20465;-82
2022/10/31 10:38:36;;;;;;;22.27;14.38;;;;;;;15.61;100.00;101383.00;4984549;28;20038;-81
2022/10/31 10:41:09;;;;;;;22.70;14.88;;;;;;;15.69;100.00;101381.84;4970679;28;20058;-84
2022/10/31 10:43:37;;;;;;;21.08;14.48;;;;;;;15.65;100.00;101380.22;4987312;28;20057;-83
2022/10/31 10:49:19;;;;;;;17.13;12.95;;;;;;;15.85;100.00;101376.94;4982600;28;20042;-83
2022/10/31 10:52:01;;;;;;;24.65;16.08;;;;;;;16.11;100.00;101367.25;4953840;28;20056;-82
2022/10/31 10:55:19;;;;;;;21.23;14.52;;;;;;;16.01;100.00;101367.53;5001775;28;20081;-82
2022/10/31 10:57:55;;;;;;;23.13;13.52;;;;;;;16.10;100.00;101379.72;4980370;28;20046;-82
2022/10/31 11:00:30;;;;;;;22.90;16.17;;;;;;;16.04;100.00;101374.56;4983057;28;20038;-86
2022/10/31 11:02:56;;;;;;;;;;;;;;;16.22;100.00;101376.63;4966320;28;20491;-82
2022/10/31 11:05:42;;;;;;;22.15;15.00;;;;;;;16.28;100.00;101371.09;4979334;28;19922;-84
2022/10/31 11:08:08;;;;;;;20.67;14.35;;;;;;;16.45;100.00;101383.00;4967551;28;20093;-85
2022/10/31 11:10:35;;;;;;;21.15;14.93;;;;;;;16.44;100.00;101381.28;4961749;28;20053;-85
2022/10/31 11:13:15;;;;;;;23.67;17.25;;;;;;;16.64;100.00;101373.47;4961254;28;20089;-85
2022/10/31 11:15:56;;;;;;;20.08;13.27;;;;;;;16.61;100.00;101369.13;4986045;28;20042;-85
2022/10/31 11:18:26;;;;;;;25.02;14.77;;;;;;;16.70;100.00;101375.09;4960545;28;20038;-85
2022/10/31 11:20:55;;;;;;;25.85;15.40;;;;;;;16.82;100.00;101370.22;4966173;28;20053;-84
2022/10/31 11:23:23;;;;;;;21.20;13.63;;;;;;;16.74;100.00;101366.06;4960775;28;20050;-84
2022/10/31 11:25:59;;;;;;;23.52;15.40;;;;;;;16.63;100.00;101355.72;4960827;28;20767;-85
2022/10/31 11:28:29;;;;;;;21.00;15.52;;;;;;;16.54;100.00;101356.03;4961548;28;20490;-85
2022/10/31 11:31:00;;;;;;;20.45;12.70;;;;;;;16.70;100.00;101357.28;4958764;28;20558;-85
2022/10/31 11:33:38;;;;;;;20.08;12.48;;;;;;;16.89;100.00;101352.16;4991563;28;20557;-85